sensor_id;sensor_type;location;lat;lon;timestamp;P1;durP1;ratioP1;P2;durP2;ratioP2
14907;SDS011;7545;52.092;7.006;2023-04-06T00:00:47;9.33;;;7.10;;
14907;SDS011;7545;52.092;7.006;2023-04-06T00:03:14;10.83;;;6.37;;
14907;SDS011;7545;52.092;7.006;2023-04-06T00:05:40;11.30;;;6.80;;
14907;SDS011;7545;52.092;7.006;2023-04-06T00:08:06;11.30;;;6.23;;
14907;SDS011;7545;52.092;7.006;2023-04-06T00:10:32;9.53;;;6.40;;
14907;SDS011;7545;52.092;7.006;2023-04-06T00:12:58;11.20;;;7.17;;
14907;SDS011;7545;52.092;7.006;2023-04-06T00:15:24;8.87;;;6.23;;
14907;SDS011;7545;52.092;7.006;2023-04-06T00:17:50;9.87;;;6.83;;
14907;SDS011;7545;52.092;7.006;2023-04-06T00:20:16;9.43;;;7.47;;
14907;SDS011;7545;52.092;7.006;2023-04-06T00:22:43;8.70;;;6.70;;
14907;SDS011;7545;52.092;7.006;2023-04-06T00:25:09;12.23;;;6.57;;
14907;SDS011;7545;52.092;7.006;2023-04-06T00:27:36;8.30;;;6.47;;
14907;SDS011;7545;52.092;7.006;2023-04-06T00:30:03;9.37;;;6.40;;
14907;SDS011;7545;52.092;7.006;2023-04-06T00:32:29;9.27;;;6.40;;
14907;SDS011;7545;52.092;7.006;2023-04-06T00:34:55;10.43;;;6.40;;
14907;SDS011;7545;52.092;7.006;2023-04-06T00:37:21;10.17;;;6.53;;
14907;SDS011;7545;52.092;7.006;2023-04-06T00:39:47;7.27;;;5.97;;
14907;SDS011;7545;52.092;7.006;2023-04-06T00:42:13;8.87;;;7.13;;
14907;SDS011;7545;52.092;7.006;2023-04-06T00:44:42;9.40;;;6.97;;
14907;SDS011;7545;52.092;7.006;2023-04-06T00:47:08;8.57;;;6.83;;
14907;SDS011;7545;52.092;7.006;2023-04-06T00:49:34;10.00;;;6.13;;
14907;SDS011;7545;52.092;7.006;2023-04-06T00:52:00;8.50;;;6.40;;
14907;SDS011;7545;52.092;7.006;2023-04-06T00:54:26;9.00;;;6.37;;
14907;SDS011;7545;52.092;7.006;2023-04-06T00:56:52;7.17;;;6.23;;
14907;SDS011;7545;52.092;7.006;2023-04-06T00:59:18;8.97;;;5.93;;
14907;SDS011;7545;52.092;7.006;2023-04-06T01:01:44;9.30;;;6.47;;
14907;SDS011;7545;52.092;7.006;2023-04-06T01:04:09;10.67;;;6.83;;
14907;SDS011;7545;52.092;7.006;2023-04-06T01:06:35;10.03;;;6.63;;
14907;SDS011;7545;52.092;7.006;2023-04-06T01:09:01;8.63;;;6.70;;
14907;SDS011;7545;52.092;7.006;2023-04-06T01:11:26;8.10;;;6.07;;
14907;SDS011;7545;52.092;7.006;2023-04-06T01:13:52;10.40;;;6.07;;
14907;SDS011;7545;52.092;7.006;2023-04-06T01:16:18;6.73;;;5.73;;
14907;SDS011;7545;52.092;7.006;2023-04-06T01:18:44;7.03;;;6.03;;
14907;SDS011;7545;52.092;7.006;2023-04-06T01:21:10;7.33;;;5.60;;
14907;SDS011;7545;52.092;7.006;2023-04-06T01:23:42;9.17;;;6.40;;
14907;SDS011;7545;52.092;7.006;2023-04-06T01:26:09;11.73;;;6.43;;
14907;SDS011;7545;52.092;7.006;2023-04-06T01:28:35;10.33;;;6.90;;
14907;SDS011;7545;52.092;7.006;2023-04-06T01:31:02;9.80;;;6.90;;
14907;SDS011;7545;52.092;7.006;2023-04-06T01:33:28;8.77;;;6.83;;
14907;SDS011;7545;52.092;7.006;2023-04-06T01:35:54;8.17;;;6.43;;
14907;SDS011;7545;52.092;7.006;2023-04-06T01:38:19;8.70;;;6.80;;
14907;SDS011;7545;52.092;7.006;2023-04-06T01:40:45;8.20;;;6.80;;
14907;SDS011;7545;52.092;7.006;2023-04-06T01:43:11;8.17;;;6.37;;
14907;SDS011;7545;52.092;7.006;2023-04-06T01:45:37;8.33;;;6.60;;
14907;SDS011;7545;52.092;7.006;2023-04-06T01:48:03;9.67;;;6.30;;
14907;SDS011;7545;52.092;7.006;2023-04-06T01:50:29;10.37;;;6.67;;
14907;SDS011;7545;52.092;7.006;2023-04-06T01:52:55;8.93;;;6.13;;
14907;SDS011;7545;52.092;7.006;2023-04-06T01:55:20;11.13;;;6.80;;
14907;SDS011;7545;52.092;7.006;2023-04-06T01:57:46;11.07;;;6.17;;
14907;SDS011;7545;52.092;7.006;2023-04-06T02:00:12;10.67;;;7.17;;
14907;SDS011;7545;52.092;7.006;2023-04-06T02:02:38;9.10;;;6.57;;
14907;SDS011;7545;52.092;7.006;2023-04-06T02:05:04;9.37;;;6.63;;
14907;SDS011;7545;52.092;7.006;2023-04-06T02:07:30;9.87;;;6.60;;
14907;SDS011;7545;52.092;7.006;2023-04-06T02:09:55;14.00;;;6.53;;
14907;SDS011;7545;52.092;7.006;2023-04-06T02:12:21;10.63;;;6.47;;
14907;SDS011;7545;52.092;7.006;2023-04-06T02:14:47;7.63;;;6.23;;
14907;SDS011;7545;52.092;7.006;2023-04-06T02:17:12;12.77;;;6.57;;
14907;SDS011;7545;52.092;7.006;2023-04-06T02:19:38;7.47;;;5.97;;
14907;SDS011;7545;52.092;7.006;2023-04-06T02:22:04;8.60;;;6.03;;
14907;SDS011;7545;52.092;7.006;2023-04-06T02:24:29;8.63;;;5.77;;
14907;SDS011;7545;52.092;7.006;2023-04-06T02:26:55;8.43;;;5.97;;
14907;SDS011;7545;52.092;7.006;2023-04-06T02:29:21;7.97;;;5.73;;
14907;SDS011;7545;52.092;7.006;2023-04-06T02:31:46;7.47;;;5.80;;
14907;SDS011;7545;52.092;7.006;2023-04-06T02:34:12;7.53;;;6.27;;
14907;SDS011;7545;52.092;7.006;2023-04-06T02:36:42;9.90;;;6.17;;
14907;SDS011;7545;52.092;7.006;2023-04-06T02:39:11;9.27;;;6.50;;
14907;SDS011;7545;52.092;7.006;2023-04-06T02:41:38;7.70;;;6.23;;
14907;SDS011;7545;52.092;7.006;2023-04-06T02:44:05;7.47;;;6.30;;
14907;SDS011;7545;52.092;7.006;2023-04-06T02:46:31;8.70;;;6.20;;
14907;SDS011;7545;52.092;7.006;2023-04-06T02:48:57;9.33;;;6.63;;
14907;SDS011;7545;52.092;7.006;2023-04-06T02:51:25;8.83;;;5.63;;
14907;SDS011;7545;52.092;7.006;2023-04-06T02:53:51;10.60;;;6.67;;
14907;SDS011;7545;52.092;7.006;2023-04-06T02:56:17;7.37;;;5.87;;
14907;SDS011;7545;52.092;7.006;2023-04-06T02:58:42;8.70;;;5.90;;
14907;SDS011;7545;52.092;7.006;2023-04-06T03:01:08;8.57;;;6.27;;
14907;SDS011;7545;52.092;7.006;2023-04-06T03:03:34;7.23;;;5.73;;
14907;SDS011;7545;52.092;7.006;2023-04-06T03:06:00;10.40;;;6.67;;
14907;SDS011;7545;52.092;7.006;2023-04-06T03:08:26;11.17;;;6.53;;
14907;SDS011;7545;52.092;7.006;2023-04-06T03:10:51;8.67;;;6.40;;
14907;SDS011;7545;52.092;7.006;2023-04-06T03:13:17;7.27;;;6.03;;
14907;SDS011;7545;52.092;7.006;2023-04-06T03:15:42;9.40;;;6.10;;
14907;SDS011;7545;52.092;7.006;2023-04-06T03:18:08;9.37;;;7.00;;
14907;SDS011;7545;52.092;7.006;2023-04-06T03:20:34;9.87;;;6.40;;
14907;SDS011;7545;52.092;7.006;2023-04-06T03:22:59;8.37;;;6.80;;
14907;SDS011;7545;52.092;7.006;2023-04-06T03:25:25;10.40;;;6.47;;
14907;SDS011;7545;52.092;7.006;2023-04-06T03:27:51;12.30;;;6.80;;
14907;SDS011;7545;52.092;7.006;2023-04-06T03:30:17;9.57;;;6.33;;
14907;SDS011;7545;52.092;7.006;2023-04-06T03:32:43;9.13;;;6.20;;
14907;SDS011;7545;52.092;7.006;2023-04-06T03:35:09;9.10;;;6.57;;
14907;SDS011;7545;52.092;7.006;2023-04-06T03:37:35;13.40;;;6.73;;
14907;SDS011;7545;52.092;7.006;2023-04-06T03:40:01;9.07;;;7.30;;
14907;SDS011;7545;52.092;7.006;2023-04-06T03:42:27;8.27;;;6.40;;
14907;SDS011;7545;52.092;7.006;2023-04-06T03:44:53;8.23;;;6.43;;
14907;SDS011;7545;52.092;7.006;2023-04-06T03:47:19;11.17;;;6.63;;
14907;SDS011;7545;52.092;7.006;2023-04-06T03:49:45;9.17;;;6.27;;
14907;SDS011;7545;52.092;7.006;2023-04-06T03:52:11;9.77;;;7.33;;
14907;SDS011;7545;52.092;7.006;2023-04-06T03:54:36;10.77;;;6.90;;
14907;SDS011;7545;52.092;7.006;2023-04-06T03:57:02;9.70;;;6.77;;
14907;SDS011;7545;52.092;7.006;2023-04-06T03:59:28;10.03;;;7.07;;
14907;SDS011;7545;52.092;7.006;2023-04-06T04:01:54;8.57;;;6.37;;
14907;SDS011;7545;52.092;7.006;2023-04-06T04:04:20;8.33;;;6.43;;
14907;SDS011;7545;52.092;7.006;2023-04-06T04:06:45;9.53;;;7.17;;
14907;SDS011;7545;52.092;7.006;2023-04-06T04:09:11;7.93;;;6.10;;
14907;SDS011;7545;52.092;7.006;2023-04-06T04:11:37;12.70;;;7.40;;
14907;SDS011;7545;52.092;7.006;2023-04-06T04:14:02;8.47;;;6.63;;
14907;SDS011;7545;52.092;7.006;2023-04-06T04:16:28;9.47;;;7.10;;
14907;SDS011;7545;52.092;7.006;2023-04-06T04:18:54;11.17;;;6.80;;
14907;SDS011;7545;52.092;7.006;2023-04-06T04:21:20;14.53;;;8.50;;
14907;SDS011;7545;52.092;7.006;2023-04-06T04:23:45;11.40;;;7.37;;
14907;SDS011;7545;52.092;7.006;2023-04-06T04:26:11;11.33;;;7.17;;
14907;SDS011;7545;52.092;7.006;2023-04-06T04:28:37;11.10;;;8.60;;
14907;SDS011;7545;52.092;7.006;2023-04-06T04:31:02;10.23;;;7.33;;
14907;SDS011;7545;52.092;7.006;2023-04-06T04:33:28;11.23;;;8.57;;
14907;SDS011;7545;52.092;7.006;2023-04-06T04:35:54;12.47;;;8.67;;
14907;SDS011;7545;52.092;7.006;2023-04-06T04:38:19;11.00;;;7.37;;
14907;SDS011;7545;52.092;7.006;2023-04-06T04:40:45;15.33;;;8.90;;
14907;SDS011;7545;52.092;7.006;2023-04-06T04:43:11;10.87;;;8.30;;
14907;SDS011;7545;52.092;7.006;2023-04-06T04:45:36;12.93;;;8.53;;
14907;SDS011;7545;52.092;7.006;2023-04-06T04:48:02;12.00;;;7.60;;
14907;SDS011;7545;52.092;7.006;2023-04-06T04:50:29;12.70;;;7.80;;
14907;SDS011;7545;52.092;7.006;2023-04-06T04:52:55;10.17;;;7.67;;
14907;SDS011;7545;52.092;7.006;2023-04-06T04:55:21;11.20;;;8.33;;
14907;SDS011;7545;52.092;7.006;2023-04-06T04:57:46;10.03;;;7.17;;
14907;SDS011;7545;52.092;7.006;2023-04-06T05:00:12;12.33;;;7.30;;
14907;SDS011;7545;52.092;7.006;2023-04-06T05:02:38;10.67;;;7.40;;
14907;SDS011;7545;52.092;7.006;2023-04-06T05:05:04;7.70;;;6.57;;
14907;SDS011;7545;52.092;7.006;2023-04-06T05:07:30;14.20;;;7.13;;
14907;SDS011;7545;52.092;7.006;2023-04-06T05:09:56;8.43;;;6.87;;
14907;SDS011;7545;52.092;7.006;2023-04-06T05:12:21;12.47;;;7.57;;
14907;SDS011;7545;52.092;7.006;2023-04-06T05:14:48;10.10;;;6.90;;
14907;SDS011;7545;52.092;7.006;2023-04-06T05:17:14;12.63;;;7.43;;
14907;SDS011;7545;52.092;7.006;2023-04-06T05:19:39;9.20;;;7.07;;
14907;SDS011;7545;52.092;7.006;2023-04-06T05:22:05;10.43;;;7.70;;
14907;SDS011;7545;52.092;7.006;2023-04-06T05:24:31;9.80;;;7.03;;
14907;SDS011;7545;52.092;7.006;2023-04-06T05:26:56;9.23;;;7.07;;
14907;SDS011;7545;52.092;7.006;2023-04-06T05:29:22;10.73;;;7.10;;
14907;SDS011;7545;52.092;7.006;2023-04-06T05:31:48;11.93;;;8.00;;
14907;SDS011;7545;52.092;7.006;2023-04-06T05:34:13;8.60;;;6.97;;
14907;SDS011;7545;52.092;7.006;2023-04-06T05:36:39;10.37;;;7.90;;
14907;SDS011;7545;52.092;7.006;2023-04-06T05:39:07;16.37;;;8.43;;
14907;SDS011;7545;52.092;7.006;2023-04-06T05:41:33;9.40;;;7.17;;
14907;SDS011;7545;52.092;7.006;2023-04-06T05:43:59;11.57;;;7.70;;
14907;SDS011;7545;52.092;7.006;2023-04-06T05:46:25;9.40;;;7.43;;
14907;SDS011;7545;52.092;7.006;2023-04-06T05:48:50;12.03;;;7.70;;
14907;SDS011;7545;52.092;7.006;2023-04-06T05:51:16;11.73;;;8.03;;
14907;SDS011;7545;52.092;7.006;2023-04-06T05:53:42;16.50;;;9.23;;
14907;SDS011;7545;52.092;7.006;2023-04-06T05:56:07;12.07;;;8.80;;
14907;SDS011;7545;52.092;7.006;2023-04-06T05:58:33;13.57;;;8.67;;
14907;SDS011;7545;52.092;7.006;2023-04-06T06:00:59;14.70;;;9.67;;
14907;SDS011;7545;52.092;7.006;2023-04-06T06:03:25;14.03;;;10.30;;
14907;SDS011;7545;52.092;7.006;2023-04-06T06:05:51;13.93;;;8.93;;
14907;SDS011;7545;52.092;7.006;2023-04-06T06:08:17;13.30;;;9.13;;
14907;SDS011;7545;52.092;7.006;2023-04-06T06:10:42;15.97;;;10.47;;
14907;SDS011;7545;52.092;7.006;2023-04-06T06:13:08;17.53;;;10.63;;
14907;SDS011;7545;52.092;7.006;2023-04-06T06:15:34;18.17;;;11.33;;
14907;SDS011;7545;52.092;7.006;2023-04-06T06:18:00;17.37;;;10.50;;
14907;SDS011;7545;52.092;7.006;2023-04-06T06:20:26;15.90;;;10.23;;
14907;SDS011;7545;52.092;7.006;2023-04-06T06:22:52;12.33;;;9.20;;
14907;SDS011;7545;52.092;7.006;2023-04-06T06:25:18;16.07;;;9.53;;
14907;SDS011;7545;52.092;7.006;2023-04-06T06:27:44;13.23;;;8.77;;
14907;SDS011;7545;52.092;7.006;2023-04-06T06:30:09;15.50;;;9.90;;
14907;SDS011;7545;52.092;7.006;2023-04-06T06:32:35;20.07;;;9.90;;
14907;SDS011;7545;52.092;7.006;2023-04-06T06:35:01;13.43;;;9.30;;
14907;SDS011;7545;52.092;7.006;2023-04-06T06:37:27;15.77;;;9.43;;
14907;SDS011;7545;52.092;7.006;2023-04-06T06:39:53;17.17;;;10.37;;
14907;SDS011;7545;52.092;7.006;2023-04-06T06:42:18;14.83;;;9.90;;
14907;SDS011;7545;52.092;7.006;2023-04-06T06:44:44;17.40;;;10.00;;
14907;SDS011;7545;52.092;7.006;2023-04-06T06:47:10;19.70;;;9.63;;
14907;SDS011;7545;52.092;7.006;2023-04-06T06:49:36;13.47;;;9.30;;
14907;SDS011;7545;52.092;7.006;2023-04-06T06:52:01;11.10;;;9.17;;
14907;SDS011;7545;52.092;7.006;2023-04-06T06:54:27;12.57;;;8.97;;
14907;SDS011;7545;52.092;7.006;2023-04-06T06:56:53;12.67;;;9.30;;
14907;SDS011;7545;52.092;7.006;2023-04-06T06:59:19;12.47;;;9.27;;
14907;SDS011;7545;52.092;7.006;2023-04-06T07:01:46;20.57;;;9.27;;
14907;SDS011;7545;52.092;7.006;2023-04-06T07:04:11;12.63;;;8.97;;
14907;SDS011;7545;52.092;7.006;2023-04-06T07:06:37;15.93;;;9.60;;
14907;SDS011;7545;52.092;7.006;2023-04-06T07:09:03;17.07;;;8.80;;
14907;SDS011;7545;52.092;7.006;2023-04-06T07:11:29;12.67;;;8.60;;
14907;SDS011;7545;52.092;7.006;2023-04-06T07:13:55;15.83;;;8.67;;
14907;SDS011;7545;52.092;7.006;2023-04-06T07:16:21;19.83;;;9.37;;
14907;SDS011;7545;52.092;7.006;2023-04-06T07:18:46;12.60;;;9.07;;
14907;SDS011;7545;52.092;7.006;2023-04-06T07:21:12;13.17;;;9.37;;
14907;SDS011;7545;52.092;7.006;2023-04-06T07:23:38;13.70;;;8.73;;
14907;SDS011;7545;52.092;7.006;2023-04-06T07:26:04;12.10;;;8.30;;
14907;SDS011;7545;52.092;7.006;2023-04-06T07:28:29;12.73;;;9.83;;
14907;SDS011;7545;52.092;7.006;2023-04-06T07:30:55;11.83;;;8.47;;
14907;SDS011;7545;52.092;7.006;2023-04-06T07:33:21;12.13;;;8.50;;
14907;SDS011;7545;52.092;7.006;2023-04-06T07:35:46;13.63;;;9.00;;
14907;SDS011;7545;52.092;7.006;2023-04-06T07:38:12;12.00;;;8.17;;
14907;SDS011;7545;52.092;7.006;2023-04-06T07:40:38;14.43;;;9.47;;
14907;SDS011;7545;52.092;7.006;2023-04-06T07:43:04;13.10;;;9.27;;
14907;SDS011;7545;52.092;7.006;2023-04-06T07:45:30;12.13;;;8.83;;
14907;SDS011;7545;52.092;7.006;2023-04-06T07:47:56;12.17;;;8.27;;
14907;SDS011;7545;52.092;7.006;2023-04-06T07:50:22;13.40;;;8.90;;
14907;SDS011;7545;52.092;7.006;2023-04-06T07:52:47;12.77;;;7.87;;
14907;SDS011;7545;52.092;7.006;2023-04-06T07:55:13;13.13;;;8.67;;
14907;SDS011;7545;52.092;7.006;2023-04-06T07:57:39;14.20;;;8.13;;
14907;SDS011;7545;52.092;7.006;2023-04-06T08:00:05;14.27;;;8.70;;
14907;SDS011;7545;52.092;7.006;2023-04-06T08:02:34;14.50;;;9.07;;
14907;SDS011;7545;52.092;7.006;2023-04-06T08:04:59;10.63;;;8.50;;
14907;SDS011;7545;52.092;7.006;2023-04-06T08:07:25;15.90;;;8.90;;
14907;SDS011;7545;52.092;7.006;2023-04-06T08:09:51;12.07;;;8.10;;
14907;SDS011;7545;52.092;7.006;2023-04-06T08:12:17;14.13;;;8.67;;
14907;SDS011;7545;52.092;7.006;2023-04-06T08:14:43;12.70;;;8.60;;
14907;SDS011;7545;52.092;7.006;2023-04-06T08:17:08;12.43;;;8.43;;
14907;SDS011;7545;52.092;7.006;2023-04-06T08:19:34;13.43;;;8.27;;
14907;SDS011;7545;52.092;7.006;2023-04-06T08:22:00;16.43;;;9.40;;
14907;SDS011;7545;52.092;7.006;2023-04-06T08:24:26;14.00;;;7.83;;
14907;SDS011;7545;52.092;7.006;2023-04-06T08:26:52;12.93;;;8.40;;
14907;SDS011;7545;52.092;7.006;2023-04-06T08:29:18;12.60;;;9.07;;
14907;SDS011;7545;52.092;7.006;2023-04-06T08:31:43;12.47;;;8.63;;
14907;SDS011;7545;52.092;7.006;2023-04-06T08:34:09;13.70;;;8.90;;
14907;SDS011;7545;52.092;7.006;2023-04-06T08:36:35;13.27;;;10.03;;
14907;SDS011;7545;52.092;7.006;2023-04-06T08:39:01;11.13;;;7.83;;
14907;SDS011;7545;52.092;7.006;2023-04-06T08:41:27;11.97;;;8.07;;
14907;SDS011;7545;52.092;7.006;2023-04-06T08:43:56;12.57;;;8.43;;
14907;SDS011;7545;52.092;7.006;2023-04-06T08:46:24;12.70;;;8.27;;
14907;SDS011;7545;52.092;7.006;2023-04-06T08:49:00;17.17;;;8.77;;
14907;SDS011;7545;52.092;7.006;2023-04-06T08:51:28;10.67;;;7.43;;
14907;SDS011;7545;52.092;7.006;2023-04-06T08:53:55;13.73;;;8.33;;
14907;SDS011;7545;52.092;7.006;2023-04-06T08:56:23;12.63;;;8.23;;
14907;SDS011;7545;52.092;7.006;2023-04-06T08:58:50;12.10;;;8.35;;
14907;SDS011;7545;52.092;7.006;2023-04-06T09:01:18;14.02;;;8.18;;
14907;SDS011;7545;52.092;7.006;2023-04-06T09:03:48;11.82;;;8.88;;
14907;SDS011;7545;52.092;7.006;2023-04-06T09:06:15;15.00;;;8.80;;
14907;SDS011;7545;52.092;7.006;2023-04-06T09:08:41;13.43;;;8.90;;
14907;SDS011;7545;52.092;7.006;2023-04-06T09:11:07;10.77;;;8.13;;
14907;SDS011;7545;52.092;7.006;2023-04-06T09:13:46;12.45;;;8.48;;
14907;SDS011;7545;52.092;7.006;2023-04-06T09:16:14;14.30;;;9.15;;
14907;SDS011;7545;52.092;7.006;2023-04-06T09:18:40;14.85;;;9.65;;
14907;SDS011;7545;52.092;7.006;2023-04-06T09:21:06;12.68;;;9.35;;
14907;SDS011;7545;52.092;7.006;2023-04-06T09:23:33;12.52;;;8.85;;
14907;SDS011;7545;52.092;7.006;2023-04-06T09:26:09;13.70;;;9.38;;
14907;SDS011;7545;52.092;7.006;2023-04-06T09:28:41;14.48;;;9.60;;
14907;SDS011;7545;52.092;7.006;2023-04-06T09:31:07;15.82;;;9.98;;
14907;SDS011;7545;52.092;7.006;2023-04-06T09:33:36;15.88;;;10.15;;
14907;SDS011;7545;52.092;7.006;2023-04-06T09:36:04;14.77;;;9.35;;
14907;SDS011;7545;52.092;7.006;2023-04-06T09:38:29;15.60;;;9.65;;
14907;SDS011;7545;52.092;7.006;2023-04-06T09:40:55;13.82;;;10.50;;
14907;SDS011;7545;52.092;7.006;2023-04-06T09:43:27;15.82;;;9.23;;
14907;SDS011;7545;52.092;7.006;2023-04-06T09:45:53;15.13;;;10.43;;
14907;SDS011;7545;52.092;7.006;2023-04-06T09:48:24;15.13;;;9.38;;
14907;SDS011;7545;52.092;7.006;2023-04-06T09:50:53;12.93;;;9.30;;
14907;SDS011;7545;52.092;7.006;2023-04-06T09:53:25;12.88;;;9.77;;
14907;SDS011;7545;52.092;7.006;2023-04-06T09:55:55;16.70;;;9.88;;
14907;SDS011;7545;52.092;7.006;2023-04-06T09:58:27;13.90;;;9.50;;
14907;SDS011;7545;52.092;7.006;2023-04-06T10:01:01;15.48;;;10.13;;
14907;SDS011;7545;52.092;7.006;2023-04-06T10:06:07;15.10;;;10.73;;
14907;SDS011;7545;52.092;7.006;2023-04-06T10:08:36;14.27;;;9.65;;
14907;SDS011;7545;52.092;7.006;2023-04-06T10:11:06;15.25;;;10.25;;
14907;SDS011;7545;52.092;7.006;2023-04-06T10:13:32;15.65;;;11.07;;
14907;SDS011;7545;52.092;7.006;2023-04-06T10:15:59;16.67;;;10.73;;
14907;SDS011;7545;52.092;7.006;2023-04-06T10:18:26;13.00;;;10.10;;
14907;SDS011;7545;52.092;7.006;2023-04-06T10:26:01;16.63;;;10.30;;
14907;SDS011;7545;52.092;7.006;2023-04-06T10:28:34;13.80;;;9.38;;
14907;SDS011;7545;52.092;7.006;2023-04-06T10:31:01;18.35;;;10.63;;
14907;SDS011;7545;52.092;7.006;2023-04-06T10:33:30;14.48;;;10.88;;
14907;SDS011;7545;52.092;7.006;2023-04-06T10:35:56;17.92;;;10.82;;
14907;SDS011;7545;52.092;7.006;2023-04-06T10:38:35;13.18;;;9.38;;
14907;SDS011;7545;52.092;7.006;2023-04-06T10:41:06;16.83;;;10.95;;
14907;SDS011;7545;52.092;7.006;2023-04-06T10:43:33;18.58;;;10.75;;
14907;SDS011;7545;52.092;7.006;2023-04-06T10:46:03;14.45;;;10.48;;
14907;SDS011;7545;52.092;7.006;2023-04-06T10:48:36;13.05;;;9.57;;
14907;SDS011;7545;52.092;7.006;2023-04-06T10:51:06;14.25;;;10.05;;
14907;SDS011;7545;52.092;7.006;2023-04-06T10:53:34;16.52;;;10.15;;
14907;SDS011;7545;52.092;7.006;2023-04-06T10:56:00;18.48;;;10.52;;
14907;SDS011;7545;52.092;7.006;2023-04-06T10:58:27;13.85;;;9.75;;
14907;SDS011;7545;52.092;7.006;2023-04-06T11:00:53;15.90;;;10.55;;
14907;SDS011;7545;52.092;7.006;2023-04-06T11:03:20;14.90;;;10.30;;
14907;SDS011;7545;52.092;7.006;2023-04-06T11:05:49;20.27;;;10.80;;
14907;SDS011;7545;52.092;7.006;2023-04-06T11:08:25;15.73;;;10.30;;
14907;SDS011;7545;52.092;7.006;2023-04-06T11:10:52;16.42;;;10.73;;
14907;SDS011;7545;52.092;7.006;2023-04-06T11:21:14;13.63;;;10.18;;
14907;SDS011;7545;52.092;7.006;2023-04-06T11:23:40;15.38;;;10.52;;
14907;SDS011;7545;52.092;7.006;2023-04-06T11:26:10;14.02;;;10.13;;
14907;SDS011;7545;52.092;7.006;2023-04-06T11:28:37;16.48;;;10.32;;
14907;SDS011;7545;52.092;7.006;2023-04-06T11:31:05;14.95;;;11.35;;
14907;SDS011;7545;52.092;7.006;2023-04-06T11:33:35;15.80;;;10.38;;
14907;SDS011;7545;52.092;7.006;2023-04-06T11:36:02;16.92;;;9.80;;
14907;SDS011;7545;52.092;7.006;2023-04-06T11:38:28;16.67;;;10.32;;
14907;SDS011;7545;52.092;7.006;2023-04-06T11:40:55;18.65;;;10.77;;
14907;SDS011;7545;52.092;7.006;2023-04-06T11:43:29;13.27;;;10.18;;
14907;SDS011;7545;52.092;7.006;2023-04-06T11:46:01;14.90;;;10.82;;
14907;SDS011;7545;52.092;7.006;2023-04-06T11:48:28;16.67;;;10.90;;
14907;SDS011;7545;52.092;7.006;2023-04-06T11:50:57;15.93;;;10.32;;
14907;SDS011;7545;52.092;7.006;2023-04-06T11:53:28;16.33;;;11.85;;
14907;SDS011;7545;52.092;7.006;2023-04-06T11:55:54;18.05;;;11.18;;
14907;SDS011;7545;52.092;7.006;2023-04-06T11:58:21;19.15;;;11.82;;
14907;SDS011;7545;52.092;7.006;2023-04-06T12:00:46;17.33;;;10.75;;
14907;SDS011;7545;52.092;7.006;2023-04-06T12:03:12;16.85;;;11.10;;
14907;SDS011;7545;52.092;7.006;2023-04-06T12:05:39;15.85;;;11.18;;
14907;SDS011;7545;52.092;7.006;2023-04-06T12:08:05;17.27;;;11.18;;
14907;SDS011;7545;52.092;7.006;2023-04-06T12:10:30;17.05;;;11.50;;
14907;SDS011;7545;52.092;7.006;2023-04-06T12:12:56;16.95;;;11.80;;
14907;SDS011;7545;52.092;7.006;2023-04-06T12:15:22;16.67;;;11.68;;
14907;SDS011;7545;52.092;7.006;2023-04-06T12:17:48;14.25;;;9.88;;
14907;SDS011;7545;52.092;7.006;2023-04-06T12:20:14;15.82;;;11.38;;
14907;SDS011;7545;52.092;7.006;2023-04-06T12:22:40;15.48;;;11.10;;
14907;SDS011;7545;52.092;7.006;2023-04-06T12:25:06;16.92;;;11.23;;
14907;SDS011;7545;52.092;7.006;2023-04-06T12:27:32;17.13;;;11.38;;
14907;SDS011;7545;52.092;7.006;2023-04-06T12:29:58;14.40;;;10.70;;
14907;SDS011;7545;52.092;7.006;2023-04-06T12:32:24;15.70;;;10.38;;
14907;SDS011;7545;52.092;7.006;2023-04-06T12:34:51;15.48;;;11.20;;
14907;SDS011;7545;52.092;7.006;2023-04-06T12:37:17;18.60;;;10.88;;
14907;SDS011;7545;52.092;7.006;2023-04-06T12:39:43;18.20;;;11.23;;
14907;SDS011;7545;52.092;7.006;2023-04-06T12:42:10;13.70;;;10.02;;
14907;SDS011;7545;52.092;7.006;2023-04-06T12:44:36;17.52;;;11.23;;
14907;SDS011;7545;52.092;7.006;2023-04-06T12:47:01;18.65;;;11.00;;
14907;SDS011;7545;52.092;7.006;2023-04-06T12:49:30;18.85;;;11.48;;
14907;SDS011;7545;52.092;7.006;2023-04-06T12:51:56;21.17;;;11.98;;
14907;SDS011;7545;52.092;7.006;2023-04-06T12:54:22;17.92;;;11.95;;
14907;SDS011;7545;52.092;7.006;2023-04-06T12:56:47;16.50;;;11.85;;
14907;SDS011;7545;52.092;7.006;2023-04-06T12:59:13;19.15;;;11.38;;
14907;SDS011;7545;52.092;7.006;2023-04-06T13:01:39;17.63;;;11.30;;
14907;SDS011;7545;52.092;7.006;2023-04-06T13:04:05;16.67;;;11.40;;
14907;SDS011;7545;52.092;7.006;2023-04-06T13:06:31;19.00;;;11.02;;
14907;SDS011;7545;52.092;7.006;2023-04-06T13:08:56;18.33;;;11.50;;
14907;SDS011;7545;52.092;7.006;2023-04-06T13:11:22;16.98;;;11.10;;
14907;SDS011;7545;52.092;7.006;2023-04-06T13:13:49;19.33;;;11.25;;
14907;SDS011;7545;52.092;7.006;2023-04-06T13:16:15;17.13;;;11.30;;
14907;SDS011;7545;52.092;7.006;2023-04-06T13:18:40;16.67;;;11.23;;
14907;SDS011;7545;52.092;7.006;2023-04-06T13:21:06;18.67;;;11.40;;
14907;SDS011;7545;52.092;7.006;2023-04-06T13:23:33;16.42;;;11.27;;
14907;SDS011;7545;52.092;7.006;2023-04-06T13:26:00;15.30;;;10.65;;
14907;SDS011;7545;52.092;7.006;2023-04-06T13:28:28;16.33;;;10.77;;
14907;SDS011;7545;52.092;7.006;2023-04-06T13:30:54;17.33;;;10.23;;
14907;SDS011;7545;52.092;7.006;2023-04-06T13:33:20;17.27;;;11.15;;
14907;SDS011;7545;52.092;7.006;2023-04-06T13:35:46;18.90;;;11.07;;
14907;SDS011;7545;52.092;7.006;2023-04-06T13:38:13;15.77;;;10.40;;
14907;SDS011;7545;52.092;7.006;2023-04-06T13:40:39;17.35;;;10.68;;
14907;SDS011;7545;52.092;7.006;2023-04-06T13:43:05;20.23;;;10.70;;
14907;SDS011;7545;52.092;7.006;2023-04-06T13:45:31;17.58;;;10.63;;
14907;SDS011;7545;52.092;7.006;2023-04-06T13:47:57;15.85;;;10.50;;
14907;SDS011;7545;52.092;7.006;2023-04-06T13:50:25;16.02;;;10.38;;
14907;SDS011;7545;52.092;7.006;2023-04-06T13:52:51;17.75;;;10.35;;
14907;SDS011;7545;52.092;7.006;2023-04-06T13:55:17;17.00;;;10.80;;
14907;SDS011;7545;52.092;7.006;2023-04-06T13:57:42;15.80;;;9.85;;
14907;SDS011;7545;52.092;7.006;2023-04-06T14:00:08;14.43;;;9.48;;
14907;SDS011;7545;52.092;7.006;2023-04-06T14:02:36;16.48;;;10.02;;
14907;SDS011;7545;52.092;7.006;2023-04-06T14:05:02;15.68;;;9.68;;
14907;SDS011;7545;52.092;7.006;2023-04-06T14:07:28;15.18;;;9.88;;
14907;SDS011;7545;52.092;7.006;2023-04-06T14:09:53;13.27;;;8.73;;
14907;SDS011;7545;52.092;7.006;2023-04-06T14:12:19;16.05;;;10.13;;
14907;SDS011;7545;52.092;7.006;2023-04-06T14:14:45;12.90;;;9.05;;
14907;SDS011;7545;52.092;7.006;2023-04-06T14:17:11;16.52;;;9.57;;
14907;SDS011;7545;52.092;7.006;2023-04-06T14:19:36;13.50;;;9.43;;
14907;SDS011;7545;52.092;7.006;2023-04-06T14:22:02;14.35;;;8.95;;
14907;SDS011;7545;52.092;7.006;2023-04-06T14:24:29;13.80;;;9.63;;
14907;SDS011;7545;52.092;7.006;2023-04-06T14:26:55;14.65;;;9.02;;
14907;SDS011;7545;52.092;7.006;2023-04-06T14:29:21;15.63;;;9.27;;
14907;SDS011;7545;52.092;7.006;2023-04-06T14:31:47;14.15;;;8.80;;
14907;SDS011;7545;52.092;7.006;2023-04-06T14:34:13;12.88;;;9.00;;
14907;SDS011;7545;52.092;7.006;2023-04-06T14:36:38;15.52;;;10.05;;
14907;SDS011;7545;52.092;7.006;2023-04-06T14:39:05;20.85;;;10.25;;
14907;SDS011;7545;52.092;7.006;2023-04-06T14:41:32;13.43;;;9.02;;
14907;SDS011;7545;52.092;7.006;2023-04-06T14:43:58;13.05;;;9.05;;
14907;SDS011;7545;52.092;7.006;2023-04-06T14:46:24;17.42;;;9.05;;
14907;SDS011;7545;52.092;7.006;2023-04-06T14:48:50;15.77;;;8.70;;
14907;SDS011;7545;52.092;7.006;2023-04-06T14:51:16;12.52;;;8.45;;
14907;SDS011;7545;52.092;7.006;2023-04-06T14:53:42;17.92;;;9.05;;
14907;SDS011;7545;52.092;7.006;2023-04-06T14:56:07;13.35;;;7.82;;
14907;SDS011;7545;52.092;7.006;2023-04-06T14:58:33;12.85;;;7.82;;